Time;durP1;ratioP1;P1;durP2;ratioP2;P2;SDS_P1;SDS_P2;PMS_P1;PMS_P2;Temp;Humidity;BMP_temperature;BMP_pressure;BME280_temperature;BME280_humidity;BME280_pressure;Samples;Min_cycle;Max_cycle;Signal;HPM_P1;HPM_P2
2022/03/13 00:02:23;;;;;;;26.90;12.80;;;0.00;67.40;;;;;;5011222;28;20228;-79
2022/03/13 00:04:49;;;;;;;20.13;12.17;;;0.00;67.20;;;;;;5010769;28;20183;-79
2022/03/13 00:07:21;;;;;;;22.00;12.77;;;0.00;67.10;;;;;;5010993;28;20543;-79
2022/03/13 00:09:51;;;;;;;21.70;11.30;;;0.00;67.30;;;;;;5010658;28;20172;-79
2022/03/13 00:12:29;;;;;;;17.13;11.20;;;-0.10;67.20;;;;;;5010557;28;20191;-79
2022/03/13 00:15:02;;;;;;;21.87;12.03;;;-0.10;67.30;;;;;;5011458;28;20258;-79
2022/03/13 00:17:29;;;;;;;20.63;10.83;;;-0.10;67.20;;;;;;5010498;28;20204;-79
2022/03/13 00:20:00;;;;;;;16.30;10.13;;;0.00;67.10;;;;;;5010663;28;20228;-79
2022/03/13 00:22:27;;;;;;;18.40;10.10;;;0.00;66.90;;;;;;4995422;28;20156;-79
2022/03/13 00:24:52;;;;;;;17.00;10.23;;;0.00;66.90;;;;;;5011065;28;20263;-79
2022/03/13 00:27:18;;;;;;;16.30;9.13;;;0.00;66.60;;;;;;5011107;28;20266;-79
2022/03/13 00:29:43;;;;;;;16.63;9.60;;;0.00;66.50;;;;;;5010252;28;20180;-79
2022/03/13 00:32:09;;;;;;;16.50;9.33;;;0.00;66.90;;;;;;5010251;28;20180;-79
2022/03/13 00:34:35;;;;;;;17.30;11.00;;;-0.10;67.00;;;;;;5011269;28;20180;-79
2022/03/13 00:37:01;;;;;;;17.83;10.87;;;-0.10;67.50;;;;;;4995033;28;20227;-79
2022/03/13 00:39:27;;;;;;;18.03;11.20;;;-0.20;67.70;;;;;;4994923;28;20231;-79
2022/03/13 00:41:53;;;;;;;20.87;11.37;;;-0.30;67.60;;;;;;5010191;28;20271;-79
2022/03/13 00:44:19;;;;;;;21.13;10.77;;;-0.20;68.10;;;;;;5010276;28;20200;-79
2022/03/13 00:46:45;;;;;;;18.60;11.47;;;-0.30;67.90;;;;;;5010535;28;20219;-79
2022/03/13 00:49:10;;;;;;;22.47;10.90;;;-0.30;68.20;;;;;;5010183;28;20172;-79
2022/03/13 00:51:36;;;;;;;17.67;11.03;;;-0.30;68.50;;;;;;5010574;28;20248;-79
2022/03/13 00:54:03;;;;;;;17.93;10.87;;;-0.30;68.80;;;;;;5010759;28;20243;-79
2022/03/13 00:56:29;;;;;;;18.27;11.67;;;-0.30;68.90;;;;;;5009809;28;20200;-79
2022/03/13 00:58:54;;;;;;;16.87;10.40;;;-0.30;68.80;;;;;;5010100;28;20182;-79
2022/03/13 01:01:20;;;;;;;17.47;11.00;;;-0.40;68.90;;;;;;4994674;28;20251;-79
2022/03/13 01:03:47;;;;;;;19.40;10.30;;;-0.40;69.20;;;;;;4994783;28;20187;-79
2022/03/13 01:06:13;;;;;;;21.03;10.10;;;-0.40;69.30;;;;;;4995094;28;20258;-79
2022/03/13 01:08:40;;;;;;;17.23;10.17;;;-0.40;69.10;;;;;;4994644;28;20212;-79
2022/03/13 01:11:06;;;;;;;15.97;10.13;;;-0.50;69.20;;;;;;5010739;28;20184;-79
2022/03/13 01:13:32;;;;;;;20.57;10.93;;;-0.50;69.40;;;;;;5008967;28;20192;-79
2022/03/13 01:16:20;;;;;;;18.60;10.90;;;-0.70;69.50;;;;;;5009615;28;20184;-79
2022/03/13 01:18:48;;;;;;;20.73;11.37;;;-0.80;70.20;;;;;;4994646;28;20184;-79
2022/03/13 01:21:15;;;;;;;15.60;10.67;;;-1.00;70.80;;;;;;5009837;28;20216;-79
2022/03/13 01:23:52;;;;;;;17.80;10.23;;;-1.10;71.00;;;;;;5009761;28;20180;-79
2022/03/13 01:26:21;;;;;;;18.03;10.50;;;-1.20;71.10;;;;;;5010227;28;20207;-79
2022/03/13 01:28:48;;;;;;;15.50;9.30;;;-1.10;71.30;;;;;;4993530;28;20180;-79
2022/03/13 01:31:13;;;;;;;23.13;10.17;;;-1.30;71.10;;;;;;5009593;28;20192;-79
2022/03/13 01:33:39;;;;;;;18.67;10.43;;;-1.40;72.00;;;;;;5009533;28;20195;-79
2022/03/13 01:36:05;;;;;;;17.50;9.93;;;-1.30;72.30;;;;;;5009464;28;20187;-79
2022/03/13 01:38:33;;;;;;;17.80;10.50;;;-1.20;72.40;;;;;;5009856;28;20184;-79
2022/03/13 01:40:58;;;;;;;17.23;10.37;;;-1.20;71.90;;;;;;5009810;28;20211;-79
2022/03/13 01:43:25;;;;;;;15.60;9.27;;;-1.20;71.70;;;;;;5013028;28;20669;-79
2022/03/13 01:45:52;;;;;;;17.00;9.80;;;-1.20;71.70;;;;;;5012347;28;20183;-79
2022/03/13 01:48:17;;;;;;;16.97;9.83;;;-1.20;71.30;;;;;;4997585;28;20196;-79
2022/03/13 01:50:43;;;;;;;17.10;10.00;;;-1.20;71.20;;;;;;4997829;28;20191;-79
2022/03/13 01:53:08;;;;;;;16.80;10.23;;;-1.20;71.50;;;;;;5012326;28;20191;-79
2022/03/13 01:55:34;;;;;;;17.97;10.43;;;-1.20;71.70;;;;;;4996878;28;20179;-79
2022/03/13 01:58:00;;;;;;;19.17;9.93;;;-1.20;72.20;;;;;;5012003;28;20627;-79
2022/03/13 02:00:27;;;;;;;24.83;11.13;;;-1.10;71.40;;;;;;4995433;28;20287;-79
2022/03/13 02:02:52;;;;;;;21.37;10.63;;;-1.20;71.30;;;;;;4996131;28;20536;-79
2022/03/13 02:05:36;;;;;;;15.70;9.47;;;-1.20;71.30;;;;;;5011435;28;20176;-79
2022/03/13 02:08:19;;;;;;;19.23;10.13;;;-1.30;71.00;;;;;;5011790;28;20200;-79
2022/03/13 02:10:46;;;;;;;16.03;8.97;;;-1.30;71.70;;;;;;4996997;28;20172;-79
2022/03/13 02:13:15;;;;;;;16.47;9.17;;;-1.30;71.30;;;;;;5012640;28;20247;-79
2022/03/13 02:15:41;;;;;;;14.63;9.43;;;-1.30;71.10;;;;;;4995259;28;20192;-79
2022/03/13 02:18:06;;;;;;;15.63;8.87;;;-1.40;70.50;;;;;;4995440;28;20296;-79
2022/03/13 02:20:44;;;;;;;13.57;7.60;;;-1.40;70.50;;;;;;4996419;28;20227;-79
2022/03/13 02:23:24;;;;;;;14.00;8.07;;;-1.50;70.80;;;;;;4995710;28;20203;-79
2022/03/13 02:26:00;;;;;;;12.23;7.87;;;-1.60;70.80;;;;;;5000404;28;20171;-79
2022/03/13 02:28:32;;;;;;;14.70;8.40;;;-1.60;71.00;;;;;;5014892;28;20183;-79
2022/03/13 02:31:00;;;;;;;15.53;8.43;;;-1.50;71.00;;;;;;5000368;28;20169;-79
2022/03/13 02:33:26;;;;;;;10.80;7.10;;;-1.50;71.30;;;;;;5014847;28;20188;-79
2022/03/13 02:35:55;;;;;;;13.63;8.57;;;-1.50;71.30;;;;;;5015189;28;20191;-79
2022/03/13 02:38:20;;;;;;;16.13;9.20;;;-1.40;71.00;;;;;;5014583;28;20347;-79
2022/03/13 02:40:47;;;;;;;15.03;9.27;;;-1.50;71.00;;;;;;5015916;28;20271;-79
2022/03/13 02:43:13;;;;;;;19.90;10.37;;;-1.50;71.30;;;;;;5015225;28;20180;-79
2022/03/13 02:45:39;;;;;;;24.97;10.87;;;-1.40;71.50;;;;;;5015503;28;20640;-79
2022/03/13 02:48:06;;;;;;;23.17;13.10;;;-1.40;71.10;;;;;;5014854;28;20302;-79
2022/03/13 02:50:33;;;;;;;18.73;10.27;;;-1.60;70.70;;;;;;5014583;28;20191;-79
2022/03/13 02:52:59;;;;;;;13.83;9.37;;;-1.50;71.10;;;;;;4998151;28;20230;-79
2022/03/13 02:55:25;;;;;;;17.47;10.23;;;-1.40;69.20;;;;;;5014893;28;20176;-79
2022/03/13 02:57:52;;;;;;;16.90;9.57;;;-1.30;68.80;;;;;;5014490;28;20235;-79
2022/03/13 03:00:20;;;;;;;17.67;10.20;;;-1.20;68.90;;;;;;5014606;28;20212;-79
2022/03/13 03:02:45;;;;;;;16.87;9.33;;;-1.10;69.20;;;;;;4999678;28;20180;-79
2022/03/13 03:05:11;;;;;;;15.83;9.13;;;-1.10;69.40;;;;;;5000042;28;20177;-79
2022/03/13 03:07:37;;;;;;;15.77;9.53;;;-1.30;69.80;;;;;;5014650;28;20197;-79
2022/03/13 03:10:05;;;;;;;14.67;8.67;;;-1.40;70.30;;;;;;4999864;28;20536;-79
2022/03/13 03:12:31;;;;;;;15.93;8.57;;;-1.50;71.10;;;;;;5014088;28;20267;-79
2022/03/13 03:14:57;;;;;;;17.40;9.47;;;-1.40;71.70;;;;;;5014834;28;20275;-79
2022/03/13 03:17:23;;;;;;;14.57;9.57;;;-1.40;72.10;;;;;;5014408;28;20242;-79
2022/03/13 03:19:48;;;;;;;14.60;8.93;;;-1.40;71.90;;;;;;5013791;28;20214;-78
2022/03/13 03:22:15;;;;;;;16.33;9.40;;;-1.50;72.00;;;;;;5013927;28;20287;-78
2022/03/13 03:24:41;;;;;;;14.80;9.70;;;-1.60;72.20;;;;;;5013780;28;20187;-78
2022/03/13 03:27:07;;;;;;;14.90;8.57;;;-1.70;72.10;;;;;;4998845;28;20200;-78
2022/03/13 03:29:33;;;;;;;16.13;8.87;;;-1.80;72.60;;;;;;5013164;28;20180;-78
2022/03/13 03:31:59;;;;;;;14.83;9.10;;;-1.80;72.80;;;;;;4998292;28;20250;-78
2022/03/13 03:34:27;;;;;;;13.17;8.07;;;-1.70;72.80;;;;;;4998218;28;20319;-78
2022/03/13 03:37:00;;;;;;;14.70;8.53;;;-1.70;72.60;;;;;;5012691;28;20207;-78
2022/03/13 03:39:29;;;;;;;13.13;8.20;;;-1.70;72.60;;;;;;5013847;28;20268;-78
2022/03/13 03:41:55;;;;;;;14.63;8.03;;;-1.80;72.50;;;;;;5013094;28;20321;-78
2022/03/13 03:44:22;;;;;;;14.00;8.53;;;-1.80;72.70;;;;;;5012905;28;20663;-78
2022/03/13 03:46:49;;;;;;;14.53;8.20;;;-1.90;73.40;;;;;;5012794;28;20255;-78
2022/03/13 03:49:15;;;;;;;17.73;8.50;;;-1.90;73.40;;;;;;4997521;28;20251;-79
2022/03/13 03:51:42;;;;;;;19.37;9.40;;;-1.80;73.20;;;;;;5013356;28;20180;-79
2022/03/13 03:54:10;;;;;;;14.37;8.77;;;-1.70;73.20;;;;;;5013448;28;20184;-78
2022/03/13 03:56:36;;;;;;;13.13;8.27;;;-1.70;72.80;;;;;;5013205;28;20200;-78
2022/03/13 03:59:02;;;;;;;10.17;7.33;;;-1.60;72.20;;;;;;5012673;28;20211;-78
2022/03/13 04:01:33;;;;;;;14.20;6.70;;;-1.60;71.40;;;;;;4997493;28;20704;-79
2022/03/13 04:03:59;;;;;;;13.03;7.50;;;-1.60;71.00;;;;;;5013434;28;20172;-79
2022/03/13 04:06:24;;;;;;;16.87;8.17;;;-1.60;70.90;;;;;;4996175;28;20192;-78
2022/03/13 04:08:50;;;;;;;13.40;7.43;;;-1.60;71.00;;;;;;5012683;28;20180;-79
2022/03/13 04:11:15;;;;;;;14.27;7.90;;;-1.80;71.80;;;;;;5012868;28;20188;-78
2022/03/13 04:13:41;;;;;;;13.13;8.03;;;-1.80;72.30;;;;;;5012538;28;20191;-78
2022/03/13 04:16:08;;;;;;;16.23;7.93;;;-1.80;72.50;;;;;;5011921;28;20323;-78
2022/03/13 04:18:35;;;;;;;13.57;7.77;;;-1.80;72.60;;;;;;5011505;28;20207;-78
2022/03/13 04:21:04;;;;;;;12.63;7.27;;;-1.80;72.20;;;;;;5011912;28;20307;-78
2022/03/13 04:23:30;;;;;;;10.53;7.13;;;-1.70;71.90;;;;;;4996656;28;20670;-78
2022/03/13 04:25:56;;;;;;;12.20;7.53;;;-1.70;71.40;;;;;;5011899;28;20231;-78
2022/03/13 04:28:22;;;;;;;14.23;8.03;;;-1.70;71.40;;;;;;5011388;28;20176;-78
2022/03/13 04:30:52;;;;;;;15.20;8.13;;;-1.90;71.60;;;;;;5012209;28;20191;-78
2022/03/13 04:33:18;;;;;;;14.63;8.77;;;-2.00;72.20;;;;;;5011789;28;20176;-78
2022/03/13 04:35:43;;;;;;;14.07;8.80;;;-2.30;73.10;;;;;;5011453;28;20187;-78
2022/03/13 04:38:09;;;;;;;17.03;8.40;;;-2.20;73.80;;;;;;5010941;28;20196;-78
2022/03/13 04:40:35;;;;;;;17.23;11.27;;;-2.20;73.50;;;;;;5011533;28;20200;-78
2022/03/13 04:43:02;;;;;;;14.87;8.50;;;-2.20;73.40;;;;;;5011115;28;20172;-78
2022/03/13 04:45:28;;;;;;;15.40;8.53;;;-2.10;73.40;;;;;;5010773;28;20207;-78
2022/03/13 04:47:54;;;;;;;17.70;9.40;;;-2.00;73.40;;;;;;5011363;28;20200;-78
2022/03/13 04:50:19;;;;;;;17.57;8.83;;;-2.00;73.10;;;;;;4995823;28;20647;-78
2022/03/13 04:52:45;;;;;;;13.97;8.00;;;-1.90;72.50;;;;;;5011212;28;20180;-78
2022/03/13 04:55:11;;;;;;;15.50;9.40;;;-1.90;72.20;;;;;;4994579;28;20180;-78
2022/03/13 04:57:36;;;;;;;19.63;10.07;;;-1.90;72.30;;;;;;5010338;28;20200;-78
2022/03/13 05:00:03;;;;;;;15.37;9.87;;;-2.00;72.00;;;;;;5010443;28;20211;-78
2022/03/13 05:02:29;;;;;;;15.40;9.87;;;-2.00;72.10;;;;;;4995343;28;20223;-78
2022/03/13 05:04:55;;;;;;;15.43;9.53;;;-2.00;72.00;;;;;;5010974;28;20178;-78
2022/03/13 05:07:21;;;;;;;13.47;8.97;;;-2.00;72.80;;;;;;5011054;28;20199;-78
2022/03/13 05:09:46;;;;;;;17.03;8.73;;;-2.00;72.00;;;;;;5010493;28;20206;-78
2022/03/13 05:12:14;;;;;;;12.33;8.40;;;-2.10;72.50;;;;;;5010668;28;20187;-78
2022/03/13 05:14:40;;;;;;;13.87;8.43;;;-2.10;72.80;;;;;;5011196;28;20230;-78
2022/03/13 05:17:05;;;;;;;12.97;8.43;;;-2.00;73.00;;;;;;4995475;28;20196;-78
2022/03/13 05:19:31;;;;;;;12.87;8.33;;;-2.00;72.60;;;;;;4995686;28;20204;-78
2022/03/13 05:21:57;;;;;;;14.17;9.30;;;-2.00;72.70;;;;;;5010153;28;20196;-78
2022/03/13 05:24:22;;;;;;;13.93;8.63;;;-2.00;72.50;;;;;;4995360;28;20172;-78
2022/03/13 05:26:48;;;;;;;12.97;8.30;;;-2.20;72.60;;;;;;4995349;28;20263;-78
2022/03/13 05:29:14;;;;;;;11.77;7.97;;;-2.20;73.20;;;;;;4994571;28;20184;-78
2022/03/13 05:31:39;;;;;;;13.43;8.30;;;-2.30;73.60;;;;;;4995002;28;20180;-78
2022/03/13 05:34:05;;;;;;;13.13;8.37;;;-2.20;73.70;;;;;;5010953;28;20259;-78
2022/03/13 05:36:31;;;;;;;19.03;8.77;;;-2.20;73.20;;;;;;5010067;28;20246;-78
2022/03/13 05:38:57;;;;;;;12.47;7.93;;;-2.10;73.00;;;;;;5011194;28;20211;-78
2022/03/13 05:41:24;;;;;;;18.17;8.77;;;-2.10;72.50;;;;;;4993760;28;20204;-78
2022/03/13 05:43:50;;;;;;;14.07;8.23;;;-2.10;72.50;;;;;;5010302;28;20180;-78
2022/03/13 05:46:16;;;;;;;12.33;8.07;;;-2.20;72.60;;;;;;5010050;28;20248;-78
2022/03/13 05:48:42;;;;;;;15.20;8.53;;;-2.10;73.10;;;;;;5010250;28;20219;-78
2022/03/13 05:51:07;;;;;;;14.60;8.43;;;-2.10;73.20;;;;;;5011492;28;20214;-78
2022/03/13 05:53:33;;;;;;;13.43;8.57;;;-2.00;72.90;;;;;;5010081;28;20644;-78
2022/03/13 05:55:59;;;;;;;15.57;8.07;;;-1.90;72.50;;;;;;5010458;28;20184;-78
2022/03/13 05:58:24;;;;;;;16.43;7.50;;;-1.90;72.10;;;;;;5010626;28;20190;-78
2022/03/13 06:01:01;;;;;;;12.20;7.50;;;-1.80;71.90;;;;;;5014023;28;20250;-78
2022/03/13 06:03:27;;;;;;;16.40;8.30;;;-1.80;72.10;;;;;;4999395;28;20223;-78
2022/03/13 06:05:53;;;;;;;18.93;8.50;;;-1.80;72.20;;;;;;4999167;28;20566;-78
2022/03/13 06:08:19;;;;;;;12.20;7.57;;;-1.80;71.80;;;;;;5014058;28;20200;-78
2022/03/13 06:10:44;;;;;;;13.80;8.07;;;-1.90;72.10;;;;;;5014933;28;20191;-78
2022/03/13 06:13:10;;;;;;;14.47;9.37;;;-2.00;72.50;;;;;;5014601;28;20203;-78
2022/03/13 06:15:37;;;;;;;38.87;19.87;;;-2.20;73.10;;;;;;5014253;28;20191;-78
2022/03/13 06:18:03;;;;;;;16.20;9.60;;;-2.30;73.70;;;;;;4999182;28;20196;-78
2022/03/13 06:20:29;;;;;;;13.30;7.73;;;-2.50;74.40;;;;;;4998799;28;20212;-78
2022/03/13 06:22:54;;;;;;;12.40;7.40;;;-2.50;74.90;;;;;;4998800;28;20223;-78
2022/03/13 06:25:20;;;;;;;12.67;8.10;;;-2.30;75.20;;;;;;5014584;28;20219;-79
2022/03/13 06:27:46;;;;;;;14.87;8.40;;;-2.30;75.00;;;;;;5013858;28;20204;-78
2022/03/13 06:30:16;;;;;;;15.47;8.87;;;-2.10;74.90;;;;;;4999007;28;20176;-78
2022/03/13 06:32:45;;;;;;;15.60;8.60;;;-1.90;74.20;;;;;;5014839;28;20168;-79
2022/03/13 06:35:11;;;;;;;13.60;8.30;;;-1.80;73.70;;;;;;4999405;28;20181;-78
2022/03/13 06:37:41;;;;;;;13.10;7.93;;;-1.70;73.90;;;;;;5014595;28;20199;-78
2022/03/13 06:40:08;;;;;;;13.57;8.70;;;-1.70;74.20;;;;;;5014365;28;20230;-78
2022/03/13 06:42:34;;;;;;;15.07;8.87;;;-1.70;74.30;;;;;;4999540;28;20172;-78
2022/03/13 06:45:00;;;;;;;14.43;8.77;;;-1.60;74.50;;;;;;5014974;28;20180;-78
2022/03/13 06:47:26;;;;;;;11.27;7.50;;;-1.30;74.40;;;;;;4999729;28;20188;-78
2022/03/13 06:49:52;;;;;;;13.37;8.03;;;-1.20;73.80;;;;;;5014085;28;20181;-79
2022/03/13 06:52:17;;;;;;;11.87;7.10;;;-1.00;74.00;;;;;;4999454;28;20217;-79
2022/03/13 06:54:43;;;;;;;11.93;7.97;;;-0.70;73.70;;;;;;4999694;28;20176;-79
2022/03/13 06:57:10;;;;;;;12.53;7.93;;;-0.50;72.70;;;;;;5014385;28;20204;-78
2022/03/13 06:59:35;;;;;;;12.73;8.23;;;-0.30;72.20;;;;;;4999647;28;20366;-78
2022/03/13 07:02:01;;;;;;;12.23;7.93;;;-0.10;73.40;;;;;;5014347;28;20204;-78
2022/03/13 07:04:27;;;;;;;10.63;7.13;;;0.00;72.00;;;;;;4998277;28;20172;-78
2022/03/13 07:06:52;;;;;;;12.27;8.30;;;0.10;71.10;;;;;;5013956;28;20200;-78
2022/03/13 07:09:18;;;;;;;19.97;9.23;;;0.20;70.70;;;;;;5013055;28;20184;-78
2022/03/13 07:11:47;;;;;;;13.20;8.70;;;0.40;70.30;;;;;;5012624;28;20271;-78
2022/03/13 07:14:13;;;;;;;10.30;6.10;;;0.50;69.70;;;;;;5013758;28;20584;-79
2022/03/13 07:16:39;;;;;;;10.70;6.73;;;0.60;67.60;;;;;;5012630;28;20202;-78
2022/03/13 07:19:05;;;;;;;9.53;6.00;;;0.90;65.00;;;;;;5011205;28;20263;-78
2022/03/13 07:21:30;;;;;;;7.30;5.03;;;1.10;61.60;;;;;;5010063;28;20223;-78
2022/03/13 07:23:56;;;;;;;6.90;5.20;;;1.30;57.90;;;;;;4996873;28;20180;-78
2022/03/13 07:26:21;;;;;;;10.43;5.73;;;1.50;56.40;;;;;;4997123;28;20204;-78
2022/03/13 07:28:47;;;;;;;8.63;5.73;;;1.70;56.70;;;;;;5012991;28;20176;-78
2022/03/13 07:31:13;;;;;;;9.37;5.07;;;1.80;57.60;;;;;;4995882;28;20215;-78
2022/03/13 07:33:39;;;;;;;9.90;5.70;;;2.00;55.80;;;;;;4997016;28;20176;-78
2022/03/13 07:36:05;;;;;;;8.93;5.10;;;2.20;53.70;;;;;;5012946;28;20216;-78
2022/03/13 07:38:30;;;;;;;8.73;5.00;;;2.30;54.00;;;;;;5012428;28;20289;-78
2022/03/13 07:40:56;;;;;;;8.47;5.60;;;2.50;53.30;;;;;;5013253;28;20242;-78
2022/03/13 07:43:21;;;;;;;7.93;5.37;;;2.60;52.90;;;;;;5012613;28;20189;-78
2022/03/13 07:45:49;;;;;;;8.60;5.23;;;2.70;50.70;;;;;;5012687;28;20250;-78
2022/03/13 07:48:15;;;;;;;9.87;5.80;;;2.80;50.40;;;;;;5011848;28;20200;-78
2022/03/13 07:50:41;;;;;;;13.43;7.77;;;2.90;49.50;;;;;;4995067;28;20187;-78
2022/03/13 07:53:06;;;;;;;9.13;5.90;;;3.00;48.50;;;;;;5011657;28;20176;-78
2022/03/13 07:55:32;;;;;;;11.13;6.10;;;3.10;48.10;;;;;;4995753;28;20196;-78
2022/03/13 07:57:57;;;;;;;10.53;5.17;;;3.20;48.90;;;;;;4994693;28;20212;-77
2022/03/13 08:00:24;;;;;;;9.10;5.97;;;3.30;48.00;;;;;;4995459;28;20275;-77
2022/03/13 08:02:53;;;;;;;7.23;5.50;;;3.40;47.20;;;;;;5010688;28;20271;-77
2022/03/13 08:05:21;;;;;;;11.83;7.70;;;3.50;47.50;;;;;;4995479;28;20240;-77
2022/03/13 08:07:49;;;;;;;9.53;6.50;;;3.60;47.00;;;;;;5010610;28;20200;-77
2022/03/13 08:10:20;;;;;;;11.20;7.43;;;3.80;47.10;;;;;;4995263;28;20215;-77
2022/03/13 08:12:48;;;;;;;13.17;6.93;;;3.80;46.10;;;;;;4995548;28;20168;-77
2022/03/13 08:15:30;;;;;;;10.40;6.47;;;3.90;46.90;;;;;;5010614;28;20270;-77
2022/03/13 08:17:55;;;;;;;8.33;5.40;;;4.00;47.50;;;;;;5010071;28;20208;-78
2022/03/13 08:20:46;;;;;;;11.50;6.10;;;4.10;46.40;;;;;;4995797;28;20224;-77
2022/03/13 08:23:11;;;;;;;8.43;5.37;;;4.30;45.50;;;;;;5010083;28;20196;-77
